Terminal Aerodrome Forecast
Issued by NWS

Home | Current Version | Previous Version | Text Only | Print | Product List | Glossary On
Versions: 1 2 3 4 5 6 7 8 9 10 11 12 13 14 15 16 17 18 19 20 21 22 23 24 25 26 27
000
FTUS46 KMTR 271848 AAA
TAFSFO
TAF AMD
KSFO 271848Z 2719/2824 27015G22KT P6SM FEW009 BKN012
     FM271930 28019G25KT P6SM FEW020
     FM280500 27012KT P6SM OVC015
     FM280800 27010KT P6SM OVC008
     FM281100 26008KT P6SM OVC005
     FM281700 28010KT P6SM SCT014
     FM282000 29016G22KT P6SM FEW022=

USA.gov is the U.S. government's official web portal to all federal, state and local government web resources and services.